Wake, Virginia
Current Conditions -  °F | °C
As of 3:15 PM on Sunday 23 Nov 2014 (Local Time) from KW75 Reporting Station
Clear Clear  
Wind Chill: 51°   Ceiling: Unl
Heat Index: 51°   Visibility: 10mi
Dew Point: 45°   Wind: 3mph
Humidity: 79%   Direction: 130°SE
Pressure: 30.12"   Gusts: NA
Location:  37.57°N, 76.43°W
Report Text: KW75 232015Z AUTO 13003KT 10SM CLR 11/07 A3012 RMK AO1 T01050070
Loading
Personal Weather Stations






























Interactive Weather Map New forecast layout! Learn more

10-Day Weather Forecast

Advertisements
Track Severe Weather on mobile